航空気象通報

ウインドサーファーのための航空気象通報による風予報です。

1/3-1/5の航空気象通報

2019年01月03日 23時24分51秒 | お天気
羽田空港
TAF RJTT 031105Z 0312/0418 34012KT 9999 FEW030
BECMG 0403/0406 18012KT
BECMG 0412/0415 30006KT
日本時間3日21時-4日12時:340度から12ノットの風
12-15時:風が変化
15-21時:180度から12ノットの風
21-24時:風が変化
5日00-03時:300度から6ノットの風


静岡空港
TAF RJNS 031105Z 0312/0418 27012KT 9999 FEW030
BECMG 0400/0403 20005KT
BECMG 0409/0412 26016KT
日本時間3日21時-4日09時:270度から12ノットの風
09-12時:風が変化
12-18時:200度から5ノットの風
18-21時:風が変化
21時-5日03時:260度から16ノットの風


福岡空港
TAF RJFF 031106Z 0312/0418 15004KT 9999 FEW040
BECMG 0403/0406 31007KT
BECMG 0409/0412 15005KT
日本時間3日21時-4日12時:150度から4ノットの風
12-15時:風が変化
15-18時:310度から7ノットの風
18-21時:風が変化
21時-5日03時:150度から5ノットの風


那覇空港
TAF ROAH 031107Z 0312/0418 05007KT 9999 FEW025 SCT045
BECMG 0400/0403 11008KT
日本時間3日21時-4日09時:050度から7ノットの風
09-12時:風が変化
12時-5日03時:110度から8ノットの風


石垣空港
TAF ROIG 031109Z 0312/0418 08016KT 9999 SCT008 BKN015
BECMG 0412/0415 14013KT
日本時間3日21時-4日21時:080度から16ノットの風
21-24時:風が変化
5日00-03時:140度から13ノットの風


マウイのカフルイ空港
PHOG 031121Z 0312/0412 06010KT P6SM FEW030 SCT050
FM032000 06018G26KT P6SM FEW035 SCT045 AMD LTD TO VIS AND WIND TIL 031600
ハワイ時間3日02-10時:060度から10ノットの風
10時-4日02時:060度から18ノット、突風26ノット


サイパン空港
PGSN 031141Z 0312/0412 05014G20KT P6SM VCSH SCT022
TEMPO 0312/0316 -SHRA BKN022
マリアナ時間3日22時-4日22時:050度から14ノット、突風20ノット

但し、3日22時-4日02時の間:時々
ジャンル:
お天気
コメント   この記事についてブログを書く
« 1/2-1/4の航空気象通報 | トップ | 1/5-1/7の航空気象通報 »
最近の画像もっと見る

コメントを投稿

ブログ作成者から承認されるまでコメントは反映されません。

お天気」カテゴリの最新記事